Time;durP1;ratioP1;P1;durP2;ratioP2;P2;SDS_P1;SDS_P2;PMS_P1;PMS_P2;Temp;Humidity;BMP_temperature;BMP_pressure;BME280_temperature;BME280_humidity;BME280_pressure;Samples;Min_cycle;Max_cycle;Signal;HPM_P1;HPM_P2
2022/11/01 00:01:16;;;;;;;14.60;7.72;;;12.40;99.90;;;;;;4935321;29;20020;-68
2022/11/01 00:03:41;;;;;;;19.17;7.80;;;12.30;99.90;;;;;;4935301;29;20131;-68
2022/11/01 00:06:07;;;;;;;15.73;6.90;;;12.20;99.90;;;;;;4935264;29;20028;-68
2022/11/01 00:08:32;;;;;;;19.17;7.75;;;12.20;99.90;;;;;;4935140;29;20050;-68
2022/11/01 00:11:07;;;;;;;13.80;6.82;;;12.20;99.90;;;;;;4935115;29;20031;-68
2022/11/01 00:13:33;;;;;;;12.15;7.28;;;12.30;99.90;;;;;;4935104;29;20020;-68
2022/11/01 00:15:59;;;;;;;16.17;7.97;;;12.30;99.90;;;;;;4935331;29;20034;-68
2022/11/01 00:18:25;;;;;;;15.20;8.27;;;12.30;99.90;;;;;;4935085;29;20066;-68
2022/11/01 00:20:50;;;;;;;17.15;6.90;;;12.20;99.90;;;;;;4935065;29;20030;-68
2022/11/01 00:23:16;;;;;;;17.85;7.20;;;12.20;99.90;;;;;;4936411;29;20032;-68
2022/11/01 00:25:41;;;;;;;11.85;7.25;;;12.20;99.90;;;;;;4935388;29;20024;-68
2022/11/01 00:28:07;;;;;;;14.63;7.53;;;12.20;99.90;;;;;;4934950;29;20395;-68
2022/11/01 00:30:36;;;;;;;21.13;8.02;;;12.20;99.90;;;;;;4939033;29;20070;-68
2022/11/01 00:33:02;;;;;;;15.32;7.45;;;12.20;99.90;;;;;;4970279;28;20487;-68
2022/11/01 00:35:27;;;;;;;16.88;8.32;;;12.20;99.90;;;;;;4954170;28;20028;-68
2022/11/01 00:37:53;;;;;;;14.88;6.93;;;12.20;99.90;;;;;;4955687;29;20086;-68
2022/11/01 00:40:18;;;;;;;16.88;7.85;;;12.20;99.90;;;;;;4955279;28;20558;-68
2022/11/01 00:42:44;;;;;;;12.95;7.50;;;12.30;99.90;;;;;;4954023;29;20081;-68
2022/11/01 00:45:10;;;;;;;14.57;7.07;;;12.30;99.90;;;;;;4953865;28;20126;-68
2022/11/01 00:47:35;;;;;;;18.25;7.60;;;12.30;99.90;;;;;;4955142;29;20020;-68
2022/11/01 00:50:01;;;;;;;16.95;8.95;;;12.30;99.90;;;;;;4954364;29;20382;-68
2022/11/01 00:52:26;;;;;;;25.88;10.05;;;12.40;99.90;;;;;;4955143;28;20035;-68
2022/11/01 00:54:52;;;;;;;24.00;9.57;;;12.70;99.90;;;;;;4953787;28;20050;-66
2022/11/01 00:57:18;;;;;;;18.23;8.35;;;12.90;99.90;;;;;;4955132;28;20029;-66
2022/11/01 00:59:43;;;;;;;18.13;9.40;;;13.00;99.90;;;;;;4955355;28;20031;-66
2022/11/01 01:02:09;;;;;;;21.75;8.75;;;13.00;99.90;;;;;;4955276;28;20028;-66
2022/11/01 01:04:40;;;;;;;24.83;9.55;;;13.20;99.90;;;;;;4955004;28;20035;-66
2022/11/01 01:07:05;;;;;;;21.02;9.13;;;13.30;99.90;;;;;;4953923;29;20019;-66
2022/11/01 01:09:31;;;;;;;23.13;11.18;;;13.50;99.90;;;;;;4954612;29;20035;-66
2022/11/01 01:11:58;;;;;;;20.83;10.27;;;13.50;99.90;;;;;;4954599;29;20491;-66
2022/11/01 01:14:23;;;;;;;25.20;10.55;;;13.50;99.90;;;;;;4954876;28;20079;-66
2022/11/01 01:16:49;;;;;;;20.88;9.88;;;13.50;99.90;;;;;;4954674;28;20035;-66
2022/11/01 01:19:14;;;;;;;20.48;10.50;;;13.70;99.90;;;;;;4957702;29;20077;-66
2022/11/01 01:21:40;;;;;;;26.05;10.68;;;13.70;99.90;;;;;;4958121;29;20047;-66
2022/11/01 01:24:05;;;;;;;20.92;9.43;;;13.60;99.90;;;;;;4957271;29;20057;-66
2022/11/01 01:26:31;;;;;;;22.80;10.35;;;13.70;99.90;;;;;;4957519;28;20026;-66
2022/11/01 01:28:56;;;;;;;25.38;10.60;;;13.70;99.90;;;;;;4957504;29;20020;-66
2022/11/01 01:31:22;;;;;;;22.48;10.27;;;13.70;99.90;;;;;;4957303;29;20114;-66
2022/11/01 01:33:48;;;;;;;24.25;11.32;;;13.70;99.90;;;;;;4957120;29;20024;-66
2022/11/01 01:36:13;;;;;;;26.30;11.18;;;13.80;99.90;;;;;;4957395;28;20102;-68
2022/11/01 01:38:39;;;;;;;21.85;11.32;;;13.70;99.90;;;;;;4957422;29;20023;-68
2022/11/01 01:43:49;;;;;;;22.42;10.68;;;13.60;99.90;;;;;;4958665;29;20603;-70
2022/11/01 01:46:14;;;;;;;22.67;11.30;;;13.50;99.90;;;;;;4956819;28;20129;-69
2022/11/01 01:48:43;;;;;;;32.60;10.57;;;13.60;99.90;;;;;;4956812;29;20117;-70
2022/11/01 01:51:13;;;;;;;22.67;11.25;;;13.50;99.90;;;;;;4957159;29;20023;-70
2022/11/01 01:53:46;;;;;;;22.25;10.80;;;13.50;99.90;;;;;;4956833;29;20033;-70
2022/11/01 01:56:17;;;;;;;23.55;11.00;;;13.60;99.90;;;;;;4956623;28;20042;-69
2022/11/01 01:59:18;;;;;;;18.30;10.93;;;13.50;99.90;;;;;;4956820;29;20027;-69
2022/11/01 02:01:44;;;;;;;27.80;11.38;;;13.60;99.90;;;;;;4936901;29;20032;-69
2022/11/01 02:04:18;;;;;;;27.98;12.10;;;13.60;99.90;;;;;;4921026;29;20038;-69
2022/11/01 02:06:46;;;;;;;27.35;11.75;;;13.60;99.90;;;;;;4937251;29;20024;-69
2022/11/01 02:09:11;;;;;;;22.33;11.73;;;13.70;99.90;;;;;;4936672;29;20032;-69
2022/11/01 02:11:37;;;;;;;33.38;12.68;;;13.80;99.90;;;;;;4920675;29;20027;-69
2022/11/01 02:14:03;;;;;;;22.60;11.88;;;13.90;99.90;;;;;;4920632;29;20052;-69
2022/11/01 02:17:16;;;;;;;30.27;12.57;;;14.00;99.90;;;;;;4920629;29;20031;-69
2022/11/01 02:20:13;;;;;;;22.08;11.35;;;14.10;99.90;;;;;;4928071;29;20177;-69
2022/11/01 02:23:06;;;;;;;29.35;11.93;;;14.20;99.90;;;;;;4904534;29;20031;-69
2022/11/01 02:25:56;;;;;;;31.25;13.40;;;14.20;99.90;;;;;;4920827;29;20032;-69
2022/11/01 02:28:48;;;;;;;26.35;12.25;;;14.10;99.90;;;;;;4920672;29;20047;-69
2022/11/01 02:31:58;;;;;;;30.08;13.50;;;14.00;99.90;;;;;;4936552;29;20034;-69
2022/11/01 02:34:39;;;;;;;24.08;12.90;;;14.10;99.90;;;;;;4921652;29;20040;-69
2022/11/01 02:37:42;;;;;;;28.42;13.18;;;13.90;99.90;;;;;;4957238;28;20199;-69
2022/11/01 02:40:17;;;;;;;31.38;14.70;;;13.90;99.90;;;;;;4956393;29;20038;-69
2022/11/01 02:42:47;;;;;;;28.33;13.25;;;13.80;99.90;;;;;;4956819;29;20038;-69
2022/11/01 02:45:27;;;;;;;25.95;12.55;;;13.80;99.90;;;;;;4956139;28;20034;-69
2022/11/01 02:47:58;;;;;;;32.47;13.43;;;13.80;99.90;;;;;;4957108;29;20024;-69
2022/11/01 02:50:27;;;;;;;26.98;14.00;;;13.80;99.90;;;;;;4957383;29;20027;-70
2022/11/01 02:52:53;;;;;;;27.38;14.02;;;14.00;99.90;;;;;;4957360;29;20034;-70
2022/11/01 02:55:28;;;;;;;23.73;13.07;;;13.90;99.90;;;;;;4957066;28;20035;-70
2022/11/01 02:57:57;;;;;;;29.33;12.18;;;13.90;99.90;;;;;;4961145;29;20031;-69
2022/11/01 03:00:26;;;;;;;23.55;12.75;;;14.00;99.90;;;;;;4958458;29;20031;-69
2022/11/01 03:02:58;;;;;;;23.45;12.70;;;14.00;99.90;;;;;;4955645;29;20028;-69
2022/11/01 03:05:38;;;;;;;21.80;12.52;;;13.90;99.90;;;;;;4958288;28;20118;-69
2022/11/01 03:08:11;;;;;;;25.58;12.55;;;13.90;99.90;;;;;;4956388;29;20062;-69
2022/11/01 03:11:02;;;;;;;25.40;11.95;;;13.90;99.90;;;;;;4956129;29;20023;-69
2022/11/01 03:13:40;;;;;;;26.03;12.93;;;13.90;99.90;;;;;;4956702;29;20023;-69
2022/11/01 03:16:47;;;;;;;29.60;13.15;;;14.00;99.90;;;;;;4956543;28;20062;-69
2022/11/01 03:19:41;;;;;;;27.05;13.02;;;14.00;99.90;;;;;;4919471;29;20082;-69
2022/11/01 03:22:22;;;;;;;35.03;12.40;;;14.10;99.90;;;;;;4935243;29;20027;-70
2022/11/01 03:24:48;;;;;;;25.85;12.00;;;14.10;99.90;;;;;;4935209;29;20100;-69
2022/11/01 03:27:21;;;;;;;25.60;12.15;;;14.10;99.90;;;;;;4919336;29;20023;-69
2022/11/01 03:29:55;;;;;;;30.75;12.45;;;14.00;99.90;;;;;;4920075;29;20032;-70
2022/11/01 03:32:25;;;;;;;31.02;13.10;;;14.10;99.90;;;;;;4919812;29;20020;-70
2022/11/01 03:34:51;;;;;;;26.02;11.70;;;14.00;99.90;;;;;;4934964;29;20110;-69
2022/11/01 03:37:19;;;;;;;23.83;11.40;;;14.00;99.90;;;;;;4935209;29;20118;-70
2022/11/01 03:39:47;;;;;;;18.63;10.75;;;14.20;99.90;;;;;;4918488;29;20028;-70
2022/11/01 03:42:19;;;;;;;23.45;11.05;;;14.30;99.90;;;;;;4935163;29;20136;-70
2022/11/01 03:44:48;;;;;;;25.85;11.50;;;14.30;99.90;;;;;;4918826;29;20038;-70
2022/11/01 03:47:14;;;;;;;23.90;11.13;;;14.30;99.90;;;;;;4935208;29;20110;-70
2022/11/01 03:49:40;;;;;;;24.63;10.75;;;14.30;99.90;;;;;;4930846;29;20171;-70
2022/11/01 03:52:05;;;;;;;19.05;9.82;;;14.40;99.90;;;;;;4955028;29;20368;-70
2022/11/01 03:54:31;;;;;;;22.20;10.40;;;14.40;99.90;;;;;;4954438;28;20035;-69
2022/11/01 03:56:56;;;;;;;21.98;11.35;;;14.50;99.90;;;;;;4955791;29;20035;-70
2022/11/01 03:59:25;;;;;;;20.65;10.05;;;14.60;99.90;;;;;;4954554;29;20027;-70
2022/11/01 04:01:51;;;;;;;23.73;10.35;;;14.60;99.90;;;;;;4956142;29;20051;-70
2022/11/01 04:04:17;;;;;;;18.73;10.55;;;14.70;99.90;;;;;;4955359;28;20108;-69
2022/11/01 04:06:42;;;;;;;18.40;10.35;;;14.70;99.90;;;;;;4954771;29;20110;-69
2022/11/01 04:09:09;;;;;;;23.33;11.18;;;14.70;99.90;;;;;;4954841;29;20115;-70
2022/11/01 04:11:34;;;;;;;24.65;11.65;;;14.60;99.90;;;;;;4954646;29;20019;-70
2022/11/01 04:22:32;;;;;;;25.38;11.27;;;14.20;99.90;;;;;;4916063;29;20035;-70
2022/11/01 04:24:57;;;;;;;25.50;10.93;;;14.30;99.90;;;;;;4915209;29;20036;-70
2022/11/01 04:27:23;;;;;;;22.83;10.77;;;14.40;99.90;;;;;;4899538;29;20032;-70
2022/11/01 04:29:48;;;;;;;21.17;11.77;;;14.30;99.90;;;;;;4915964;29;20028;-70
2022/11/01 04:32:14;;;;;;;21.88;10.32;;;14.20;99.90;;;;;;4915428;29;20414;-70
2022/11/01 04:34:42;;;;;;;25.10;11.50;;;14.20;99.90;;;;;;4915257;29;20036;-69
2022/11/01 04:37:08;;;;;;;19.73;9.82;;;14.20;99.90;;;;;;4915290;29;20043;-68
2022/11/01 04:39:34;;;;;;;30.42;11.18;;;14.30;99.90;;;;;;4915311;29;20040;-67
2022/11/01 04:41:59;;;;;;;20.77;9.68;;;14.30;99.90;;;;;;4915151;29;20024;-67
2022/11/01 04:44:25;;;;;;;21.85;10.43;;;14.30;99.90;;;;;;4899952;29;20040;-68
2022/11/01 04:46:50;;;;;;;25.90;10.27;;;14.40;99.90;;;;;;4915306;29;20076;-67
2022/11/01 04:49:16;;;;;;;16.23;9.07;;;14.30;99.90;;;;;;4915102;29;20069;-67
2022/11/01 04:51:41;;;;;;;18.25;9.73;;;14.30;99.90;;;;;;4955220;28;20075;-67
2022/11/01 04:54:07;;;;;;;17.65;10.05;;;14.30;99.90;;;;;;4958030;29;20031;-67
2022/11/01 04:56:33;;;;;;;21.00;10.10;;;14.30;99.90;;;;;;4959066;28;20027;-67
2022/11/01 04:58:58;;;;;;;24.02;9.35;;;14.30;99.90;;;;;;4958736;29;20023;-67
2022/11/01 05:01:24;;;;;;;19.85;10.40;;;14.30;99.90;;;;;;4957741;29;20024;-67
2022/11/01 05:03:50;;;;;;;24.67;10.07;;;14.20;99.90;;;;;;4958088;29;20027;-67
2022/11/01 05:06:15;;;;;;;22.73;9.65;;;14.20;99.90;;;;;;4957654;28;20059;-67
2022/11/01 05:08:41;;;;;;;17.80;9.65;;;14.10;99.90;;;;;;4958011;29;20181;-67
2022/11/01 05:11:06;;;;;;;21.52;9.80;;;14.00;99.90;;;;;;4957902;29;20023;-67
2022/11/01 05:13:32;;;;;;;20.33;10.23;;;14.10;99.90;;;;;;4958786;28;20023;-67
2022/11/01 05:16:00;;;;;;;18.08;9.60;;;14.10;99.90;;;;;;4957425;28;20030;-68
2022/11/01 05:18:26;;;;;;;21.73;10.07;;;14.10;99.90;;;;;;4957454;29;20023;-67
2022/11/01 05:20:51;;;;;;;23.75;9.65;;;14.20;99.90;;;;;;4957458;29;20034;-69
2022/11/01 05:23:17;;;;;;;23.63;9.90;;;14.30;99.90;;;;;;4958929;28;20482;-69
2022/11/01 05:25:42;;;;;;;27.98;11.50;;;14.40;99.90;;;;;;4958740;28;20063;-69
2022/11/01 05:31:30;;;;;;;27.35;9.30;;;14.30;99.90;;;;;;4958681;29;20054;-68
2022/11/01 05:33:55;;;;;;;21.27;10.02;;;14.30;99.90;;;;;;4958362;29;20023;-69
2022/11/01 05:36:21;;;;;;;20.00;9.50;;;14.40;99.90;;;;;;4958008;28;20031;-69
2022/11/01 05:38:47;;;;;;;23.73;9.82;;;14.50;99.90;;;;;;4958605;29;20031;-67
2022/11/01 05:41:12;;;;;;;27.77;10.98;;;14.50;99.90;;;;;;4958718;28;20031;-67
2022/11/01 05:43:38;;;;;;;23.02;11.15;;;14.50;99.90;;;;;;4957202;29;20095;-67
2022/11/01 05:46:07;;;;;;;20.90;9.90;;;14.30;99.90;;;;;;4957838;28;20032;-67
2022/11/01 05:48:33;;;;;;;21.80;10.70;;;14.40;99.90;;;;;;4958470;29;20027;-69
2022/11/01 05:50:59;;;;;;;22.05;10.25;;;14.40;99.90;;;;;;4958591;29;20035;-69
2022/11/01 05:53:24;;;;;;;26.38;11.13;;;14.40;99.90;;;;;;4956872;29;20023;-69
2022/11/01 05:55:50;;;;;;;15.38;8.35;;;14.50;99.90;;;;;;4956944;28;20042;-69
2022/11/01 05:58:16;;;;;;;29.17;9.70;;;14.50;99.90;;;;;;4958108;28;20055;-69
2022/11/01 06:00:41;;;;;;;18.75;8.73;;;14.60;99.90;;;;;;4957555;29;20027;-69
2022/11/01 06:03:07;;;;;;;18.73;8.93;;;14.60;99.90;;;;;;4972634;28;20027;-69
2022/11/01 06:05:33;;;;;;;22.42;10.13;;;14.70;99.90;;;;;;4956568;28;20027;-69
2022/11/01 06:08:03;;;;;;;24.98;11.80;;;14.60;99.90;;;;;;4957443;29;20046;-68
2022/11/01 06:10:29;;;;;;;32.15;13.00;;;14.50;99.90;;;;;;4956727;29;20030;-67
2022/11/01 06:12:55;;;;;;;28.27;11.68;;;14.30;99.90;;;;;;4958011;29;20027;-67
2022/11/01 06:15:21;;;;;;;24.02;12.40;;;14.20;99.90;;;;;;4956465;28;20030;-67
2022/11/01 06:17:46;;;;;;;41.10;16.23;;;14.10;99.90;;;;;;4956890;29;20034;-67
2022/11/01 06:20:12;;;;;;;21.25;10.57;;;14.10;99.90;;;;;;4956767;29;20034;-67
2022/11/01 06:22:38;;;;;;;35.65;14.98;;;14.10;99.90;;;;;;4956625;29;20027;-67
2022/11/01 06:25:04;;;;;;;32.50;15.45;;;14.10;99.90;;;;;;4956214;28;20028;-67
2022/11/01 06:27:30;;;;;;;34.92;14.23;;;14.10;99.90;;;;;;4956866;29;20106;-67
2022/11/01 06:29:56;;;;;;;27.08;11.63;;;14.10;99.90;;;;;;4956259;29;20116;-69
2022/11/01 06:32:21;;;;;;;27.33;12.95;;;14.10;99.90;;;;;;4957434;29;20035;-70
2022/11/01 06:34:47;;;;;;;33.10;14.55;;;14.20;99.90;;;;;;4957303;28;20395;-69
2022/11/01 06:37:13;;;;;;;36.00;16.20;;;14.30;99.90;;;;;;4956146;29;20027;-69
2022/11/01 06:39:38;;;;;;;44.30;17.75;;;14.20;99.90;;;;;;4956428;29;20398;-70
2022/11/01 06:42:04;;;;;;;37.15;15.05;;;14.20;99.90;;;;;;4962573;29;20036;-70
2022/11/01 06:44:30;;;;;;;34.58;16.10;;;14.20;99.90;;;;;;4957107;28;20386;-68
2022/11/01 06:46:55;;;;;;;30.85;15.57;;;14.20;99.90;;;;;;4956196;29;20027;-67
2022/11/01 06:49:21;;;;;;;53.35;18.10;;;14.20;99.90;;;;;;4957130;29;20107;-67
2022/11/01 06:51:46;;;;;;;46.92;17.35;;;14.10;99.90;;;;;;4956912;29;20026;-69
2022/11/01 06:54:12;;;;;;;34.83;15.60;;;14.10;99.90;;;;;;4956117;29;20070;-67
2022/11/01 06:56:38;;;;;;;38.85;19.05;;;14.20;99.90;;;;;;4957038;28;20065;-67
2022/11/01 06:59:04;;;;;;;36.67;16.65;;;14.00;99.90;;;;;;4955708;29;20074;-67
2022/11/01 07:01:29;;;;;;;49.88;18.33;;;14.00;99.90;;;;;;4955697;29;20464;-67
2022/11/01 07:03:55;;;;;;;39.50;18.30;;;14.00;99.90;;;;;;4957042;29;20038;-67
2022/11/01 07:06:23;;;;;;;56.92;19.73;;;13.90;99.90;;;;;;4956612;28;20027;-67
2022/11/01 07:08:48;;;;;;;41.92;18.25;;;13.80;99.90;;;;;;4956408;29;20107;-69
2022/11/01 07:11:14;;;;;;;53.50;20.90;;;13.80;99.90;;;;;;4956843;29;20125;-69
2022/11/01 07:13:40;;;;;;;47.35;19.17;;;13.70;99.90;;;;;;4955424;29;20030;-69
2022/11/01 07:16:06;;;;;;;57.97;21.23;;;13.70;99.90;;;;;;4955705;28;20035;-69
2022/11/01 07:18:33;;;;;;;61.30;21.75;;;13.70;99.90;;;;;;4956798;29;20031;-69
2022/11/01 07:21:03;;;;;;;51.97;20.95;;;13.70;99.90;;;;;;4956874;28;20042;-69
2022/11/01 07:23:29;;;;;;;57.83;22.48;;;13.80;99.90;;;;;;4957904;29;20031;-69
2022/11/01 07:25:55;;;;;;;45.50;19.35;;;13.80;99.90;;;;;;4958728;28;20032;-69
2022/11/01 07:28:21;;;;;;;47.85;18.80;;;13.80;99.90;;;;;;4955495;29;20498;-69
2022/11/01 07:30:47;;;;;;;56.70;21.00;;;13.80;99.90;;;;;;4955894;29;20023;-70
2022/11/01 07:33:13;;;;;;;64.63;23.55;;;13.80;99.90;;;;;;4955001;29;20026;-70
2022/11/01 07:35:38;;;;;;;41.97;18.67;;;13.80;99.90;;;;;;4955226;28;20118;-67
2022/11/01 07:38:04;;;;;;;60.50;22.05;;;13.80;99.90;;;;;;4955918;29;20034;-69
2022/11/01 07:40:29;;;;;;;52.25;21.08;;;13.80;99.90;;;;;;4956376;29;20035;-69
2022/11/01 07:42:57;;;;;;;55.10;20.60;;;13.90;99.90;;;;;;4955012;29;20091;-68
2022/11/01 07:45:23;;;;;;;41.67;18.27;;;13.90;99.90;;;;;;4954695;28;20035;-67
2022/11/01 07:47:49;;;;;;;33.60;16.17;;;13.90;99.90;;;;;;4954707;29;20360;-69
2022/11/01 07:50:15;;;;;;;28.92;14.68;;;13.90;99.90;;;;;;4956390;29;20034;-69
2022/11/01 07:52:41;;;;;;;30.50;14.95;;;14.00;99.90;;;;;;4955047;29;20055;-69
2022/11/01 07:55:07;;;;;;;29.08;13.75;;;14.00;99.90;;;;;;4955856;28;20035;-69
2022/11/01 07:57:40;;;;;;;25.52;11.70;;;14.10;99.90;;;;;;4954629;29;20031;-69
2022/11/01 08:00:08;;;;;;;21.08;11.75;;;14.20;99.90;;;;;;4954921;29;20143;-67
2022/11/01 08:02:34;;;;;;;30.30;13.45;;;14.30;99.90;;;;;;4955901;29;20026;-69
2022/11/01 08:04:59;;;;;;;26.25;12.32;;;14.30;99.90;;;;;;4954580;28;20027;-69
2022/11/01 08:07:25;;;;;;;21.77;12.55;;;14.30;99.90;;;;;;4954423;29;20038;-68
2022/11/01 08:09:50;;;;;;;21.17;12.77;;;14.40;99.90;;;;;;4954808;29;20024;-69
2022/11/01 08:12:16;;;;;;;21.23;11.32;;;14.60;99.90;;;;;;4954505;29;20034;-69
2022/11/01 08:14:41;;;;;;;22.60;12.85;;;14.70;99.90;;;;;;4955688;28;20146;-68
2022/11/01 08:17:07;;;;;;;26.52;11.35;;;14.70;99.90;;;;;;4955781;29;20086;-67
2022/11/01 08:19:33;;;;;;;29.27;12.05;;;14.70;99.90;;;;;;4955702;29;20030;-67
2022/11/01 08:21:59;;;;;;;20.42;9.93;;;14.70;99.90;;;;;;4954667;29;20099;-68
2022/11/01 08:24:25;;;;;;;21.75;11.57;;;14.80;99.90;;;;;;4954919;28;20031;-67
2022/11/01 08:26:52;;;;;;;21.40;11.10;;;14.80;99.90;;;;;;4954048;28;20025;-69
2022/11/01 08:29:18;;;;;;;18.35;10.50;;;14.90;99.90;;;;;;4954293;29;20023;-67
2022/11/01 08:31:44;;;;;;;20.23;9.75;;;15.00;99.90;;;;;;4954387;29;20031;-67
2022/11/01 08:34:10;;;;;;;20.08;10.07;;;15.00;99.90;;;;;;4955505;28;20055;-69
2022/11/01 08:36:35;;;;;;;18.85;9.75;;;15.10;99.90;;;;;;4954128;28;20038;-69
2022/11/01 08:39:01;;;;;;;19.88;10.80;;;15.20;99.90;;;;;;4954173;29;20065;-70
2022/11/01 08:41:29;;;;;;;19.52;9.13;;;15.30;99.90;;;;;;4955333;29;20042;-69
2022/11/01 08:43:56;;;;;;;18.40;9.55;;;15.30;99.90;;;;;;4955624;28;20034;-67
2022/11/01 08:46:22;;;;;;;16.67;9.75;;;15.40;99.90;;;;;;4953916;28;20024;-67
2022/11/01 08:48:47;;;;;;;23.88;9.98;;;15.40;99.90;;;;;;4953989;29;20026;-67
2022/11/01 08:51:13;;;;;;;20.90;11.07;;;15.40;99.90;;;;;;4970073;28;20043;-67
2022/11/01 08:53:38;;;;;;;22.70;10.15;;;15.40;99.90;;;;;;4954013;29;20027;-70
2022/11/01 08:56:04;;;;;;;23.80;10.25;;;15.50;99.90;;;;;;4953913;28;20035;-70
2022/11/01 08:58:30;;;;;;;22.42;11.20;;;15.40;99.90;;;;;;4954153;29;20126;-69
2022/11/01 09:00:55;;;;;;;26.83;11.45;;;15.20;99.90;;;;;;4953880;29;20035;-69
2022/11/01 09:03:21;;;;;;;23.08;11.85;;;15.20;99.90;;;;;;4953418;29;20027;-69
2022/11/01 09:05:47;;;;;;;23.60;11.35;;;15.20;99.90;;;;;;4940783;29;20491;-66
2022/11/01 09:08:13;;;;;;;23.08;11.07;;;15.20;99.90;;;;;;4935970;29;20024;-67
2022/11/01 09:10:38;;;;;;;24.13;11.93;;;15.30;99.90;;;;;;4935458;29;20050;-67
2022/11/01 09:13:04;;;;;;;26.20;11.75;;;15.40;99.90;;;;;;4934594;29;20051;-67
2022/11/01 09:15:30;;;;;;;20.15;11.70;;;15.40;99.90;;;;;;4934670;29;20039;-69
2022/11/01 09:17:55;;;;;;;19.08;10.48;;;15.40;99.90;;;;;;4934522;29;20024;-70
2022/11/01 09:20:21;;;;;;;22.65;9.82;;;15.40;99.90;;;;;;4934825;29;20035;-70
2022/11/01 09:22:51;;;;;;;26.35;10.55;;;15.40;99.90;;;;;;4934569;29;20028;-70
2022/11/01 09:25:16;;;;;;;22.88;12.23;;;15.40;99.90;;;;;;4939386;29;20035;-69
2022/11/01 09:27:42;;;;;;;30.90;11.18;;;15.40;99.90;;;;;;4942458;29;20027;-69
2022/11/01 09:30:08;;;;;;;25.77;11.05;;;15.40;99.90;;;;;;4947926;29;20483;-69
2022/11/01 09:32:33;;;;;;;20.75;10.57;;;15.40;99.90;;;;;;4955058;28;20055;-70
2022/11/01 09:34:59;;;;;;;20.98;10.57;;;15.50;99.90;;;;;;4954716;28;20126;-70
2022/11/01 09:37:25;;;;;;;17.50;9.43;;;15.60;99.90;;;;;;4953548;28;20050;-70
2022/11/01 09:39:50;;;;;;;17.50;9.18;;;15.80;99.90;;;;;;4956994;29;20121;-70
2022/11/01 09:42:38;;;;;;;16.40;8.40;;;15.90;99.90;;;;;;4956875;29;20036;-70
2022/11/01 09:45:20;;;;;;;18.40;9.23;;;16.00;99.90;;;;;;4957690;28;20484;-69
2022/11/01 09:47:49;;;;;;;;;;;16.10;99.90;;;;;;4958527;28;20073;-69
2022/11/01 09:50:23;;;;;;;19.65;9.25;;;16.10;99.90;;;;;;4958269;28;19913;-70
2022/11/01 09:52:50;;;;;;;16.65;9.13;;;16.10;99.90;;;;;;4956894;29;20031;-70
2022/11/01 09:55:22;;;;;;;20.10;10.57;;;16.20;99.90;;;;;;4956640;28;20043;-70
2022/11/01 09:57:59;;;;;;;19.45;9.55;;;16.20;99.90;;;;;;4956847;29;20438;-70
2022/11/01 10:00:33;;;;;;;16.02;7.30;;;16.30;99.90;;;;;;4956886;29;20074;-70
2022/11/01 10:03:52;;;;;;;6.05;2.42;;;16.50;99.90;;;;;;4958097;28;20030;-70
2022/11/01 10:06:26;;;;;;;5.65;1.73;;;16.70;99.90;;;;;;4883059;29;20056;-70
2022/11/01 10:09:04;;;;;;;5.03;1.70;;;16.90;99.90;;;;;;4883436;29;20037;-70
2022/11/01 10:11:42;;;;;;;4.55;1.50;;;17.10;99.90;;;;;;4883157;29;20058;-70
2022/11/01 10:14:17;;;;;;;7.13;1.33;;;17.30;99.90;;;;;;4883196;29;20095;-70
2022/11/01 10:17:10;;;;;;;9.75;1.50;;;17.50;99.90;;;;;;4883134;29;20021;-69
2022/11/01 10:19:36;;;;;;;6.97;1.40;;;17.70;99.90;;;;;;4882959;29;20036;-70
2022/11/01 10:22:11;;;;;;;7.80;2.10;;;17.90;99.90;;;;;;4898719;29;20028;-70
2022/11/01 10:24:50;;;;;;;3.17;1.05;;;18.00;99.90;;;;;;4898664;29;20491;-69
2022/11/01 10:27:18;;;;;;;2.10;0.90;;;18.10;99.90;;;;;;4882954;29;20029;-69
2022/11/01 10:30:00;;;;;;;4.38;1.48;;;18.20;99.90;;;;;;4882691;29;20085;-70
2022/11/01 10:32:29;;;;;;;;;;;18.30;99.90;;;;;;4883157;29;20021;-70
2022/11/01 10:35:02;;;;;;;4.50;0.90;;;18.30;99.90;;;;;;4882540;29;20057;-69
2022/11/01 10:37:39;;;;;;;5.97;1.00;;;18.40;99.90;;;;;;4898350;29;20037;-69
2022/11/01 10:40:15;;;;;;;6.20;0.80;;;18.60;99.90;;;;;;4922154;29;20035;-69
2022/11/01 10:42:41;;;;;;;3.38;0.88;;;18.70;99.90;;;;;;4956483;29;20035;-69
2022/11/01 10:45:14;;;;;;;3.15;0.70;;;18.70;99.90;;;;;;4971850;28;20127;-69
2022/11/01 10:47:42;;;;;;;5.45;1.20;;;18.80;99.90;;;;;;4956760;29;20043;-69
2022/11/01 10:50:17;;;;;;;3.88;1.20;;;19.00;99.90;;;;;;4952859;28;20030;-69
2022/11/01 10:53:09;;;;;;;2.15;1.20;;;19.10;99.90;;;;;;4955877;29;20028;-69
2022/11/01 10:55:45;;;;;;;4.57;0.90;;;19.10;99.90;;;;;;4989414;23;20042;-69
2022/11/01 10:58:11;;;;;;;4.20;0.88;;;19.20;99.90;;;;;;4998590;28;20026;-69
2022/11/01 11:00:44;;;;;;;6.38;1.50;;;19.30;99.90;;;;;;4998255;28;20032;-69
2022/11/01 11:03:26;;;;;;;2.53;1.08;;;19.40;99.90;;;;;;5015403;28;20496;-69
2022/11/01 11:05:54;;;;;;;2.97;1.38;;;19.50;99.90;;;;;;4988422;28;20027;-69
2022/11/01 11:08:22;;;;;;;5.32;1.00;;;19.60;99.90;;;;;;4995914;28;20030;-69
2022/11/01 11:10:48;;;;;;;1.67;0.90;;;19.80;99.90;;;;;;4995520;28;20022;-69
2022/11/01 11:13:23;;;;;;;5.05;0.88;;;20.00;99.90;;;;;;4978426;28;20049;-68
2022/11/01 11:16:05;;;;;;;1.38;0.68;;;20.20;99.90;;;;;;4975991;28;20030;-69
2022/11/01 11:18:38;;;;;;;2.45;0.63;;;20.20;99.90;;;;;;4976221;28;20027;-69
2022/11/01 11:21:10;;;;;;;3.13;0.80;;;20.20;99.90;;;;;;4977886;28;20460;-69
2022/11/01 11:23:40;;;;;;;1.55;0.88;;;20.30;99.90;;;;;;4977810;28;20026;-69
2022/11/01 11:26:12;;;;;;;8.00;0.70;;;20.20;99.90;;;;;;4977572;28;20030;-69
2022/11/01 11:28:43;;;;;;;4.78;0.63;;;20.10;99.90;;;;;;4977649;28;20053;-69
2022/11/01 11:31:14;;;;;;;1.60;0.80;;;20.20;99.90;;;;;;4995183;28;20018;-69
2022/11/01 11:33:49;;;;;;;2.95;0.60;;;20.30;99.90;;;;;;4977573;28;20022;-69
2022/11/01 11:36:14;;;;;;;4.03;0.77;;;20.50;99.90;;;;;;4994980;28;20061;-69
2022/11/01 11:38:46;;;;;;;2.20;0.63;;;20.60;99.90;;;;;;4977466;28;20061;-69
2022/11/01 11:41:24;;;;;;;;;;;20.60;99.90;;;;;;4978756;28;20026;-69
2022/11/01 11:43:49;;;;;;;3.42;0.93;;;20.60;99.90;;;;;;4977492;28;19906;-68
2022/11/01 11:46:21;;;;;;;4.22;1.77;;;20.60;99.90;;;;;;4977260;28;20057;-68
2022/11/01 11:48:55;;;;;;;5.70;1.40;;;20.60;99.90;;;;;;4977502;28;20047;-68
2022/11/01 11:51:23;;;;;;;1.77;1.13;;;20.80;99.90;;;;;;4995005;28;20016;-68
2022/11/01 11:54:11;;;;;;;6.35;0.93;;;20.90;99.90;;;;;;4977595;28;20022;-68
2022/11/01 11:56:36;;;;;;;2.15;0.80;;;20.90;99.90;;;;;;4977523;28;20031;-69
2022/11/01 11:59:10;;;;;;;1.58;0.88;;;20.90;99.90;;;;;;4977055;28;20037;-69
2022/11/01 12:01:36;;;;;;;2.45;0.80;;;21.00;99.90;;;;;;4977216;28;20034;-69
2022/11/01 12:04:08;;;;;;;2.53;1.00;;;21.20;98.90;;;;;;4977975;28;20351;-69
2022/11/01 12:06:39;;;;;;;;;;;21.20;99.70;;;;;;4977784;28;20027;-69
2022/11/01 12:09:25;;;;;;;1.38;0.70;;;21.40;98.60;;;;;;5009840;28;19912;-69
2022/11/01 12:11:50;;;;;;;1.80;0.80;;;21.60;97.70;;;;;;4977315;28;20026;-69
2022/11/01 12:14:22;;;;;;;3.92;0.80;;;21.60;97.30;;;;;;4976862;28;20027;-69
2022/11/01 12:16:48;;;;;;;;;;;21.50;97.80;;;;;;4977417;28;20117;-69
2022/11/01 12:19:31;;;;;;;2.40;0.55;;;21.40;97.60;;;;;;4976913;28;19949;-69
2022/11/01 12:22:00;;;;;;;2.58;0.63;;;21.40;96.20;;;;;;4977149;28;20416;-69
2022/11/01 12:24:34;;;;;;;1.50;0.70;;;21.30;96.60;;;;;;4976717;28;20026;-68
2022/11/01 12:27:03;;;;;;;2.55;0.60;;;21.10;96.40;;;;;;4977613;28;20027;-69
2022/11/01 12:29:41;;;;;;;6.82;0.80;;;20.90;96.00;;;;;;4976984;28;20023;-68
2022/11/01 12:32:15;;;;;;;0.60;0.50;;;20.80;93.80;;;;;;4976806;28;20062;-68
2022/11/01 12:34:43;;;;;;;4.38;0.60;;;21.10;95.00;;;;;;4976659;28;20030;-68
2022/11/01 12:37:20;;;;;;;2.00;0.73;;;21.40;93.80;;;;;;4976840;28;20121;-69
2022/11/01 12:40:06;;;;;;;3.13;0.77;;;21.20;93.40;;;;;;4994052;28;20114;-69
2022/11/01 12:42:40;;;;;;;1.40;0.77;;;21.00;93.00;;;;;;4976598;28;20113;-68
2022/11/01 12:45:21;;;;;;;3.78;1.60;;;21.00;93.40;;;;;;4977548;28;20061;-69
2022/11/01 12:47:53;;;;;;;6.57;1.45;;;21.00;93.70;;;;;;4994124;28;20073;-69
2022/11/01 12:50:23;;;;;;;0.82;0.30;;;21.30;93.50;;;;;;4994476;28;20031;-69
2022/11/01 12:52:58;;;;;;;2.13;0.77;;;21.60;92.90;;;;;;4994193;28;20529;-69
2022/11/01 12:55:38;;;;;;;3.05;1.17;;;21.90;91.70;;;;;;4977185;28;20120;-69
2022/11/01 12:58:09;;;;;;;2.83;1.02;;;22.00;91.70;;;;;;4976423;28;20109;-69
2022/11/01 13:00:46;;;;;;;1.90;0.70;;;22.20;90.90;;;;;;4976375;28;20027;-69
2022/11/01 13:03:33;;;;;;;2.10;0.82;;;22.30;90.50;;;;;;4994148;28;20022;-69